sensor_id;sensor_type;location;lat;lon;timestamp;P1;durP1;ratioP1;P2;durP2;ratioP2
57395;SDS011;43222;52.912;6.940;2022-07-24T00:01:35;8.38;;;4.13;;
57395;SDS011;43222;52.912;6.940;2022-07-24T00:04:04;8.73;;;3.88;;
57395;SDS011;43222;52.912;6.940;2022-07-24T00:06:31;7.90;;;3.97;;
57395;SDS011;43222;52.912;6.940;2022-07-24T00:08:56;6.28;;;4.38;;
57395;SDS011;43222;52.912;6.940;2022-07-24T00:11:23;10.95;;;4.60;;
57395;SDS011;43222;52.912;6.940;2022-07-24T00:13:49;6.82;;;4.55;;
57395;SDS011;43222;52.912;6.940;2022-07-24T00:16:15;7.75;;;4.20;;
57395;SDS011;43222;52.912;6.940;2022-07-24T00:18:41;8.23;;;4.57;;
57395;SDS011;43222;52.912;6.940;2022-07-24T00:21:07;10.10;;;4.50;;
57395;SDS011;43222;52.912;6.940;2022-07-24T00:23:33;6.45;;;4.57;;
57395;SDS011;43222;52.912;6.940;2022-07-24T00:25:59;6.07;;;4.30;;
57395;SDS011;43222;52.912;6.940;2022-07-24T00:28:25;7.22;;;4.70;;
57395;SDS011;43222;52.912;6.940;2022-07-24T00:30:51;7.10;;;4.53;;
57395;SDS011;43222;52.912;6.940;2022-07-24T00:33:17;8.18;;;4.68;;
57395;SDS011;43222;52.912;6.940;2022-07-24T00:35:43;7.40;;;4.78;;
57395;SDS011;43222;52.912;6.940;2022-07-24T00:38:09;7.63;;;4.95;;
57395;SDS011;43222;52.912;6.940;2022-07-24T00:40:35;7.18;;;4.22;;
57395;SDS011;43222;52.912;6.940;2022-07-24T00:43:01;9.82;;;4.70;;
57395;SDS011;43222;52.912;6.940;2022-07-24T00:45:28;7.88;;;4.57;;
57395;SDS011;43222;52.912;6.940;2022-07-24T00:47:54;7.53;;;4.70;;
57395;SDS011;43222;52.912;6.940;2022-07-24T00:50:20;8.05;;;4.75;;
57395;SDS011;43222;52.912;6.940;2022-07-24T00:52:46;7.47;;;5.05;;
57395;SDS011;43222;52.912;6.940;2022-07-24T00:55:12;7.55;;;4.43;;
57395;SDS011;43222;52.912;6.940;2022-07-24T00:57:38;7.15;;;4.38;;
57395;SDS011;43222;52.912;6.940;2022-07-24T01:00:09;7.03;;;4.68;;
57395;SDS011;43222;52.912;6.940;2022-07-24T01:02:35;7.05;;;4.65;;
57395;SDS011;43222;52.912;6.940;2022-07-24T01:05:04;8.00;;;4.55;;
57395;SDS011;43222;52.912;6.940;2022-07-24T01:07:30;7.65;;;4.60;;
57395;SDS011;43222;52.912;6.940;2022-07-24T01:09:56;7.22;;;4.72;;
57395;SDS011;43222;52.912;6.940;2022-07-24T01:12:22;7.32;;;5.22;;
57395;SDS011;43222;52.912;6.940;2022-07-24T01:14:49;6.82;;;4.75;;
57395;SDS011;43222;52.912;6.940;2022-07-24T01:17:15;8.13;;;4.90;;
57395;SDS011;43222;52.912;6.940;2022-07-24T01:19:41;7.07;;;4.90;;
57395;SDS011;43222;52.912;6.940;2022-07-24T01:22:07;9.88;;;5.18;;
57395;SDS011;43222;52.912;6.940;2022-07-24T01:24:33;8.70;;;5.40;;
57395;SDS011;43222;52.912;6.940;2022-07-24T01:26:59;6.75;;;5.28;;
57395;SDS011;43222;52.912;6.940;2022-07-24T01:29:25;8.35;;;5.80;;
57395;SDS011;43222;52.912;6.940;2022-07-24T01:31:51;9.45;;;5.40;;
57395;SDS011;43222;52.912;6.940;2022-07-24T01:34:17;9.82;;;5.13;;
57395;SDS011;43222;52.912;6.940;2022-07-24T01:36:43;8.27;;;5.40;;
57395;SDS011;43222;52.912;6.940;2022-07-24T01:39:09;10.00;;;5.93;;
57395;SDS011;43222;52.912;6.940;2022-07-24T01:41:35;8.05;;;5.72;;
57395;SDS011;43222;52.912;6.940;2022-07-24T01:44:01;8.20;;;5.30;;
57395;SDS011;43222;52.912;6.940;2022-07-24T01:46:27;8.93;;;5.53;;
57395;SDS011;43222;52.912;6.940;2022-07-24T01:48:53;10.48;;;5.35;;
57395;SDS011;43222;52.912;6.940;2022-07-24T01:51:19;8.10;;;5.30;;
57395;SDS011;43222;52.912;6.940;2022-07-24T01:53:45;7.88;;;5.72;;
57395;SDS011;43222;52.912;6.940;2022-07-24T01:56:11;7.78;;;5.57;;
57395;SDS011;43222;52.912;6.940;2022-07-24T01:58:37;8.85;;;5.88;;
57395;SDS011;43222;52.912;6.940;2022-07-24T02:01:04;9.68;;;5.88;;
57395;SDS011;43222;52.912;6.940;2022-07-24T02:03:30;8.30;;;5.80;;
57395;SDS011;43222;52.912;6.940;2022-07-24T02:05:56;9.75;;;5.88;;
57395;SDS011;43222;52.912;6.940;2022-07-24T02:08:22;10.82;;;6.10;;
57395;SDS011;43222;52.912;6.940;2022-07-24T02:10:49;10.23;;;6.07;;
57395;SDS011;43222;52.912;6.940;2022-07-24T02:13:15;8.02;;;5.68;;
57395;SDS011;43222;52.912;6.940;2022-07-24T02:15:41;8.48;;;6.18;;
57395;SDS011;43222;52.912;6.940;2022-07-24T02:18:07;9.73;;;6.25;;
57395;SDS011;43222;52.912;6.940;2022-07-24T02:20:33;9.10;;;6.10;;
57395;SDS011;43222;52.912;6.940;2022-07-24T02:22:59;10.77;;;5.93;;
57395;SDS011;43222;52.912;6.940;2022-07-24T02:25:25;10.60;;;6.20;;
57395;SDS011;43222;52.912;6.940;2022-07-24T02:27:51;9.95;;;6.07;;
57395;SDS011;43222;52.912;6.940;2022-07-24T02:30:20;9.93;;;6.82;;
57395;SDS011;43222;52.912;6.940;2022-07-24T02:32:46;9.10;;;6.45;;
57395;SDS011;43222;52.912;6.940;2022-07-24T02:35:12;7.88;;;6.25;;
57395;SDS011;43222;52.912;6.940;2022-07-24T02:37:40;12.90;;;6.80;;
57395;SDS011;43222;52.912;6.940;2022-07-24T02:40:07;10.02;;;6.40;;
57395;SDS011;43222;52.912;6.940;2022-07-24T02:42:33;8.40;;;6.03;;
57395;SDS011;43222;52.912;6.940;2022-07-24T02:44:59;12.52;;;6.53;;
57395;SDS011;43222;52.912;6.940;2022-07-24T02:47:25;8.70;;;6.22;;
57395;SDS011;43222;52.912;6.940;2022-07-24T02:49:51;10.13;;;6.80;;
57395;SDS011;43222;52.912;6.940;2022-07-24T02:52:17;8.38;;;6.07;;
57395;SDS011;43222;52.912;6.940;2022-07-24T02:54:43;10.43;;;6.55;;
57395;SDS011;43222;52.912;6.940;2022-07-24T02:57:09;9.73;;;7.00;;
57395;SDS011;43222;52.912;6.940;2022-07-24T02:59:35;7.93;;;6.80;;
57395;SDS011;43222;52.912;6.940;2022-07-24T03:02:01;11.07;;;6.80;;
57395;SDS011;43222;52.912;6.940;2022-07-24T03:04:27;10.38;;;7.25;;
57395;SDS011;43222;52.912;6.940;2022-07-24T03:06:53;11.77;;;7.65;;
57395;SDS011;43222;52.912;6.940;2022-07-24T03:09:19;8.95;;;7.00;;
57395;SDS011;43222;52.912;6.940;2022-07-24T03:11:45;9.38;;;7.35;;
57395;SDS011;43222;52.912;6.940;2022-07-24T03:14:11;11.50;;;7.28;;
57395;SDS011;43222;52.912;6.940;2022-07-24T03:16:37;10.88;;;7.43;;
57395;SDS011;43222;52.912;6.940;2022-07-24T03:19:03;8.63;;;7.55;;
57395;SDS011;43222;52.912;6.940;2022-07-24T03:21:29;10.82;;;7.60;;
57395;SDS011;43222;52.912;6.940;2022-07-24T03:23:56;9.45;;;7.50;;
57395;SDS011;43222;52.912;6.940;2022-07-24T03:26:22;9.98;;;7.60;;
57395;SDS011;43222;52.912;6.940;2022-07-24T03:28:48;10.20;;;7.82;;
57395;SDS011;43222;52.912;6.940;2022-07-24T03:31:14;13.18;;;7.80;;
57395;SDS011;43222;52.912;6.940;2022-07-24T03:33:40;11.55;;;7.82;;
57395;SDS011;43222;52.912;6.940;2022-07-24T03:36:06;9.45;;;7.95;;
57395;SDS011;43222;52.912;6.940;2022-07-24T03:38:33;9.30;;;7.63;;
57395;SDS011;43222;52.912;6.940;2022-07-24T03:40:59;12.27;;;7.70;;
57395;SDS011;43222;52.912;6.940;2022-07-24T03:43:25;9.98;;;7.47;;
57395;SDS011;43222;52.912;6.940;2022-07-24T03:45:51;10.45;;;7.40;;
57395;SDS011;43222;52.912;6.940;2022-07-24T03:48:17;9.50;;;7.13;;
57395;SDS011;43222;52.912;6.940;2022-07-24T03:50:43;9.57;;;7.57;;
57395;SDS011;43222;52.912;6.940;2022-07-24T03:53:09;11.35;;;7.65;;
57395;SDS011;43222;52.912;6.940;2022-07-24T03:55:35;9.85;;;7.13;;
57395;SDS011;43222;52.912;6.940;2022-07-24T03:58:01;10.43;;;7.07;;
57395;SDS011;43222;52.912;6.940;2022-07-24T04:00:27;10.38;;;7.30;;
57395;SDS011;43222;52.912;6.940;2022-07-24T04:02:53;9.10;;;7.38;;
57395;SDS011;43222;52.912;6.940;2022-07-24T04:05:19;10.57;;;7.50;;
57395;SDS011;43222;52.912;6.940;2022-07-24T04:07:45;11.07;;;7.45;;
57395;SDS011;43222;52.912;6.940;2022-07-24T04:10:11;10.10;;;7.70;;
57395;SDS011;43222;52.912;6.940;2022-07-24T04:12:37;14.13;;;7.50;;
57395;SDS011;43222;52.912;6.940;2022-07-24T04:15:03;12.20;;;8.07;;
57395;SDS011;43222;52.912;6.940;2022-07-24T04:17:30;9.80;;;7.18;;
57395;SDS011;43222;52.912;6.940;2022-07-24T04:19:56;12.55;;;7.65;;
57395;SDS011;43222;52.912;6.940;2022-07-24T04:22:22;10.75;;;7.43;;
57395;SDS011;43222;52.912;6.940;2022-07-24T04:24:48;10.00;;;7.55;;
57395;SDS011;43222;52.912;6.940;2022-07-24T04:27:14;10.23;;;7.30;;
57395;SDS011;43222;52.912;6.940;2022-07-24T04:29:39;15.30;;;6.88;;
57395;SDS011;43222;52.912;6.940;2022-07-24T04:32:05;12.43;;;7.75;;
57395;SDS011;43222;52.912;6.940;2022-07-24T04:34:31;10.07;;;7.68;;
57395;SDS011;43222;52.912;6.940;2022-07-24T04:36:57;11.35;;;7.30;;
57395;SDS011;43222;52.912;6.940;2022-07-24T04:39:23;11.25;;;6.90;;
57395;SDS011;43222;52.912;6.940;2022-07-24T04:41:49;11.48;;;7.38;;
57395;SDS011;43222;52.912;6.940;2022-07-24T04:44:15;10.77;;;7.10;;
57395;SDS011;43222;52.912;6.940;2022-07-24T04:46:41;11.43;;;7.55;;
57395;SDS011;43222;52.912;6.940;2022-07-24T04:49:07;12.00;;;7.38;;
57395;SDS011;43222;52.912;6.940;2022-07-24T04:51:33;12.38;;;7.38;;
57395;SDS011;43222;52.912;6.940;2022-07-24T04:53:59;12.70;;;6.80;;
57395;SDS011;43222;52.912;6.940;2022-07-24T04:56:25;9.50;;;7.68;;
57395;SDS011;43222;52.912;6.940;2022-07-24T04:58:55;10.27;;;6.97;;
57395;SDS011;43222;52.912;6.940;2022-07-24T05:01:21;9.77;;;7.15;;
57395;SDS011;43222;52.912;6.940;2022-07-24T05:03:47;9.73;;;6.95;;
57395;SDS011;43222;52.912;6.940;2022-07-24T05:06:13;10.07;;;6.75;;
57395;SDS011;43222;52.912;6.940;2022-07-24T05:08:39;9.93;;;6.68;;
57395;SDS011;43222;52.912;6.940;2022-07-24T05:11:05;8.25;;;6.72;;
57395;SDS011;43222;52.912;6.940;2022-07-24T05:13:31;8.40;;;6.78;;
57395;SDS011;43222;52.912;6.940;2022-07-24T05:15:57;9.88;;;6.63;;
57395;SDS011;43222;52.912;6.940;2022-07-24T05:18:23;9.02;;;6.78;;
57395;SDS011;43222;52.912;6.940;2022-07-24T05:20:49;9.13;;;6.32;;
57395;SDS011;43222;52.912;6.940;2022-07-24T05:23:15;12.32;;;6.78;;
57395;SDS011;43222;52.912;6.940;2022-07-24T05:25:41;10.73;;;6.90;;
57395;SDS011;43222;52.912;6.940;2022-07-24T05:28:07;11.40;;;7.05;;
57395;SDS011;43222;52.912;6.940;2022-07-24T05:30:34;9.63;;;6.63;;
57395;SDS011;43222;52.912;6.940;2022-07-24T05:33:00;9.63;;;7.25;;
57395;SDS011;43222;52.912;6.940;2022-07-24T05:35:26;12.02;;;7.05;;
57395;SDS011;43222;52.912;6.940;2022-07-24T05:37:52;9.05;;;6.57;;
57395;SDS011;43222;52.912;6.940;2022-07-24T05:40:18;8.05;;;7.25;;
57395;SDS011;43222;52.912;6.940;2022-07-24T05:42:44;9.30;;;6.95;;
57395;SDS011;43222;52.912;6.940;2022-07-24T05:45:10;8.57;;;6.97;;
57395;SDS011;43222;52.912;6.940;2022-07-24T05:47:39;9.20;;;6.88;;
57395;SDS011;43222;52.912;6.940;2022-07-24T05:50:07;8.00;;;6.57;;
57395;SDS011;43222;52.912;6.940;2022-07-24T05:52:33;8.00;;;6.20;;
57395;SDS011;43222;52.912;6.940;2022-07-24T05:54:59;9.27;;;5.78;;
57395;SDS011;43222;52.912;6.940;2022-07-24T05:57:25;8.70;;;5.80;;
57395;SDS011;43222;52.912;6.940;2022-07-24T05:59:51;9.02;;;5.75;;
57395;SDS011;43222;52.912;6.940;2022-07-24T06:02:17;7.20;;;5.55;;
57395;SDS011;43222;52.912;6.940;2022-07-24T06:04:43;8.35;;;5.38;;
57395;SDS011;43222;52.912;6.940;2022-07-24T06:07:09;8.52;;;5.47;;
57395;SDS011;43222;52.912;6.940;2022-07-24T06:09:36;7.25;;;5.25;;
57395;SDS011;43222;52.912;6.940;2022-07-24T06:12:02;9.70;;;5.68;;
57395;SDS011;43222;52.912;6.940;2022-07-24T06:14:29;6.80;;;5.22;;
57395;SDS011;43222;52.912;6.940;2022-07-24T06:16:55;7.70;;;5.70;;
57395;SDS011;43222;52.912;6.940;2022-07-24T06:19:21;9.10;;;5.18;;
57395;SDS011;43222;52.912;6.940;2022-07-24T06:21:47;8.75;;;5.20;;
57395;SDS011;43222;52.912;6.940;2022-07-24T06:24:13;7.68;;;4.93;;
57395;SDS011;43222;52.912;6.940;2022-07-24T06:26:39;9.50;;;5.18;;
57395;SDS011;43222;52.912;6.940;2022-07-24T06:29:05;8.18;;;5.57;;
57395;SDS011;43222;52.912;6.940;2022-07-24T06:31:31;8.90;;;4.90;;
57395;SDS011;43222;52.912;6.940;2022-07-24T06:33:57;7.20;;;5.30;;
57395;SDS011;43222;52.912;6.940;2022-07-24T06:36:23;8.05;;;5.35;;
57395;SDS011;43222;52.912;6.940;2022-07-24T06:38:50;6.60;;;4.90;;
57395;SDS011;43222;52.912;6.940;2022-07-24T06:41:16;8.50;;;5.80;;
57395;SDS011;43222;52.912;6.940;2022-07-24T06:43:42;9.65;;;5.43;;
57395;SDS011;43222;52.912;6.940;2022-07-24T06:46:08;11.50;;;6.00;;
57395;SDS011;43222;52.912;6.940;2022-07-24T06:48:34;7.38;;;5.15;;
57395;SDS011;43222;52.912;6.940;2022-07-24T06:51:00;9.82;;;6.50;;
57395;SDS011;43222;52.912;6.940;2022-07-24T06:53:26;7.82;;;5.85;;
57395;SDS011;43222;52.912;6.940;2022-07-24T06:55:52;10.90;;;6.90;;
57395;SDS011;43222;52.912;6.940;2022-07-24T06:58:20;9.55;;;6.00;;
57395;SDS011;43222;52.912;6.940;2022-07-24T07:00:47;8.57;;;6.40;;
57395;SDS011;43222;52.912;6.940;2022-07-24T07:03:13;9.45;;;6.72;;
57395;SDS011;43222;52.912;6.940;2022-07-24T07:05:39;10.80;;;7.72;;
57395;SDS011;43222;52.912;6.940;2022-07-24T07:08:06;11.63;;;7.30;;
57395;SDS011;43222;52.912;6.940;2022-07-24T07:10:32;11.25;;;7.95;;
57395;SDS011;43222;52.912;6.940;2022-07-24T07:12:58;10.85;;;7.90;;
57395;SDS011;43222;52.912;6.940;2022-07-24T07:15:24;11.70;;;7.57;;
57395;SDS011;43222;52.912;6.940;2022-07-24T07:17:51;12.60;;;7.82;;
57395;SDS011;43222;52.912;6.940;2022-07-24T07:20:17;11.43;;;8.05;;
57395;SDS011;43222;52.912;6.940;2022-07-24T07:22:43;11.45;;;8.35;;
57395;SDS011;43222;52.912;6.940;2022-07-24T07:25:10;10.52;;;8.35;;
57395;SDS011;43222;52.912;6.940;2022-07-24T07:27:37;13.85;;;8.63;;
57395;SDS011;43222;52.912;6.940;2022-07-24T07:30:04;12.18;;;8.57;;
57395;SDS011;43222;52.912;6.940;2022-07-24T07:32:30;12.05;;;8.70;;
57395;SDS011;43222;52.912;6.940;2022-07-24T07:34:56;12.15;;;9.40;;
57395;SDS011;43222;52.912;6.940;2022-07-24T07:37:22;11.02;;;9.55;;
57395;SDS011;43222;52.912;6.940;2022-07-24T07:39:48;11.13;;;9.82;;
57395;SDS011;43222;52.912;6.940;2022-07-24T07:42:14;14.75;;;10.77;;
57395;SDS011;43222;52.912;6.940;2022-07-24T07:44:40;11.27;;;10.07;;
57395;SDS011;43222;52.912;6.940;2022-07-24T07:47:06;14.45;;;10.07;;
57395;SDS011;43222;52.912;6.940;2022-07-24T07:49:33;11.68;;;9.23;;
57395;SDS011;43222;52.912;6.940;2022-07-24T07:51:59;14.43;;;10.55;;
57395;SDS011;43222;52.912;6.940;2022-07-24T07:54:25;15.27;;;10.32;;
57395;SDS011;43222;52.912;6.940;2022-07-24T07:56:51;12.98;;;10.52;;
57395;SDS011;43222;52.912;6.940;2022-07-24T07:59:17;10.80;;;9.75;;
57395;SDS011;43222;52.912;6.940;2022-07-24T08:01:43;13.27;;;10.63;;
57395;SDS011;43222;52.912;6.940;2022-07-24T08:04:09;12.20;;;10.93;;
57395;SDS011;43222;52.912;6.940;2022-07-24T08:06:35;12.88;;;9.88;;
57395;SDS011;43222;52.912;6.940;2022-07-24T08:09:01;15.13;;;11.00;;
57395;SDS011;43222;52.912;6.940;2022-07-24T08:11:28;15.18;;;10.57;;
57395;SDS011;43222;52.912;6.940;2022-07-24T08:13:54;15.43;;;10.95;;
57395;SDS011;43222;52.912;6.940;2022-07-24T08:16:20;17.15;;;11.70;;
57395;SDS011;43222;52.912;6.940;2022-07-24T08:18:46;15.70;;;11.38;;
57395;SDS011;43222;52.912;6.940;2022-07-24T08:21:12;17.88;;;12.35;;
57395;SDS011;43222;52.912;6.940;2022-07-24T08:23:40;15.82;;;11.05;;
57395;SDS011;43222;52.912;6.940;2022-07-24T08:26:06;13.25;;;10.98;;
57395;SDS011;43222;52.912;6.940;2022-07-24T08:28:32;17.88;;;12.93;;
57395;SDS011;43222;52.912;6.940;2022-07-24T08:30:58;14.80;;;12.07;;
57395;SDS011;43222;52.912;6.940;2022-07-24T08:33:24;16.33;;;11.93;;
57395;SDS011;43222;52.912;6.940;2022-07-24T08:35:50;19.13;;;11.15;;
57395;SDS011;43222;52.912;6.940;2022-07-24T08:38:16;16.33;;;10.80;;
57395;SDS011;43222;52.912;6.940;2022-07-24T08:40:42;16.83;;;10.15;;
57395;SDS011;43222;52.912;6.940;2022-07-24T08:43:08;12.95;;;8.77;;
57395;SDS011;43222;52.912;6.940;2022-07-24T08:45:39;13.93;;;9.20;;
57395;SDS011;43222;52.912;6.940;2022-07-24T08:48:08;9.55;;;7.78;;
57395;SDS011;43222;52.912;6.940;2022-07-24T08:50:35;13.93;;;7.72;;
57395;SDS011;43222;52.912;6.940;2022-07-24T08:53:02;10.73;;;7.50;;
57395;SDS011;43222;52.912;6.940;2022-07-24T08:55:29;12.23;;;8.25;;
57395;SDS011;43222;52.912;6.940;2022-07-24T08:57:56;10.02;;;7.55;;
57395;SDS011;43222;52.912;6.940;2022-07-24T09:00:22;10.32;;;7.25;;
57395;SDS011;43222;52.912;6.940;2022-07-24T09:02:49;12.57;;;7.15;;
57395;SDS011;43222;52.912;6.940;2022-07-24T09:05:15;10.68;;;6.90;;
57395;SDS011;43222;52.912;6.940;2022-07-24T09:07:41;9.88;;;5.53;;
57395;SDS011;43222;52.912;6.940;2022-07-24T09:10:08;9.50;;;4.53;;
57395;SDS011;43222;52.912;6.940;2022-07-24T09:12:36;7.40;;;4.22;;
57395;SDS011;43222;52.912;6.940;2022-07-24T09:15:16;7.00;;;4.30;;
57395;SDS011;43222;52.912;6.940;2022-07-24T09:20:15;6.55;;;3.85;;
57395;SDS011;43222;52.912;6.940;2022-07-24T09:22:41;6.85;;;3.60;;
57395;SDS011;43222;52.912;6.940;2022-07-24T09:27:39;7.57;;;3.90;;
57395;SDS011;43222;52.912;6.940;2022-07-24T09:30:05;6.80;;;4.00;;
57395;SDS011;43222;52.912;6.940;2022-07-24T09:32:32;6.40;;;3.70;;
57395;SDS011;43222;52.912;6.940;2022-07-24T09:34:58;5.85;;;3.42;;
57395;SDS011;43222;52.912;6.940;2022-07-24T09:37:26;6.25;;;3.30;;
57395;SDS011;43222;52.912;6.940;2022-07-24T09:39:52;5.70;;;2.90;;
57395;SDS011;43222;52.912;6.940;2022-07-24T09:42:18;6.25;;;3.13;;
57395;SDS011;43222;52.912;6.940;2022-07-24T09:44:57;5.43;;;2.90;;
57395;SDS011;43222;52.912;6.940;2022-07-24T09:47:23;5.95;;;2.83;;
57395;SDS011;43222;52.912;6.940;2022-07-24T09:49:50;7.28;;;3.13;;
57395;SDS011;43222;52.912;6.940;2022-07-24T09:52:19;5.22;;;2.75;;
57395;SDS011;43222;52.912;6.940;2022-07-24T09:54:50;6.00;;;2.70;;
57395;SDS011;43222;52.912;6.940;2022-07-24T09:59:49;5.70;;;2.83;;
57395;SDS011;43222;52.912;6.940;2022-07-24T10:02:16;4.53;;;2.60;;
57395;SDS011;43222;52.912;6.940;2022-07-24T10:04:43;6.80;;;2.75;;
57395;SDS011;43222;52.912;6.940;2022-07-24T10:07:10;4.75;;;2.95;;
57395;SDS011;43222;52.912;6.940;2022-07-24T10:09:40;5.22;;;2.90;;
57395;SDS011;43222;52.912;6.940;2022-07-24T10:12:06;5.20;;;2.60;;
57395;SDS011;43222;52.912;6.940;2022-07-24T10:14:37;5.80;;;2.25;;
57395;SDS011;43222;52.912;6.940;2022-07-24T10:17:05;6.22;;;2.55;;
57395;SDS011;43222;52.912;6.940;2022-07-24T10:19:36;4.90;;;2.63;;
57395;SDS011;43222;52.912;6.940;2022-07-24T10:22:05;6.50;;;2.50;;
57395;SDS011;43222;52.912;6.940;2022-07-24T10:27:02;4.47;;;2.30;;
57395;SDS011;43222;52.912;6.940;2022-07-24T10:29:28;5.35;;;2.50;;
57395;SDS011;43222;52.912;6.940;2022-07-24T10:31:55;5.55;;;2.70;;
57395;SDS011;43222;52.912;6.940;2022-07-24T10:39:25;4.57;;;2.67;;
57395;SDS011;43222;52.912;6.940;2022-07-24T10:42:01;4.65;;;2.50;;
57395;SDS011;43222;52.912;6.940;2022-07-24T10:44:28;5.43;;;2.75;;
57395;SDS011;43222;52.912;6.940;2022-07-24T10:47:01;4.30;;;2.50;;
57395;SDS011;43222;52.912;6.940;2022-07-24T10:49:35;10.82;;;3.55;;
57395;SDS011;43222;52.912;6.940;2022-07-24T10:52:01;5.18;;;2.80;;
57395;SDS011;43222;52.912;6.940;2022-07-24T10:54:27;4.82;;;2.92;;
57395;SDS011;43222;52.912;6.940;2022-07-24T10:56:53;8.30;;;2.80;;
57395;SDS011;43222;52.912;6.940;2022-07-24T10:59:33;5.32;;;2.85;;
57395;SDS011;43222;52.912;6.940;2022-07-24T11:02:23;5.50;;;2.83;;
57395;SDS011;43222;52.912;6.940;2022-07-24T11:04:45;6.22;;;2.88;;
57395;SDS011;43222;52.912;6.940;2022-07-24T11:07:12;7.80;;;2.95;;
57395;SDS011;43222;52.912;6.940;2022-07-24T11:12:31;5.22;;;2.40;;
57395;SDS011;43222;52.912;6.940;2022-07-24T11:14:58;4.65;;;2.60;;
57395;SDS011;43222;52.912;6.940;2022-07-24T11:17:44;7.03;;;2.50;;
57395;SDS011;43222;52.912;6.940;2022-07-24T11:20:15;4.30;;;2.30;;
57395;SDS011;43222;52.912;6.940;2022-07-24T11:22:46;8.48;;;2.50;;
57395;SDS011;43222;52.912;6.940;2022-07-24T11:25:20;6.20;;;2.33;;
57395;SDS011;43222;52.912;6.940;2022-07-24T11:30:12;4.50;;;2.20;;
57395;SDS011;43222;52.912;6.940;2022-07-24T11:32:39;6.32;;;2.17;;
57395;SDS011;43222;52.912;6.940;2022-07-24T11:35:06;9.00;;;2.30;;
57395;SDS011;43222;52.912;6.940;2022-07-24T11:37:33;5.72;;;2.40;;
57395;SDS011;43222;52.912;6.940;2022-07-24T11:40:00;6.63;;;2.67;;
57395;SDS011;43222;52.912;6.940;2022-07-24T11:42:26;4.78;;;2.25;;
57395;SDS011;43222;52.912;6.940;2022-07-24T11:44:52;5.72;;;2.30;;
57395;SDS011;43222;52.912;6.940;2022-07-24T11:47:19;4.78;;;2.40;;
57395;SDS011;43222;52.912;6.940;2022-07-24T11:49:46;5.63;;;2.20;;
57395;SDS011;43222;52.912;6.940;2022-07-24T11:52:20;4.80;;;2.50;;
57395;SDS011;43222;52.912;6.940;2022-07-24T11:54:47;5.22;;;2.35;;
57395;SDS011;43222;52.912;6.940;2022-07-24T11:57:21;5.63;;;2.22;;
57395;SDS011;43222;52.912;6.940;2022-07-24T11:59:48;5.78;;;2.28;;
57395;SDS011;43222;52.912;6.940;2022-07-24T12:02:14;5.50;;;2.50;;
57395;SDS011;43222;52.912;6.940;2022-07-24T12:04:41;6.63;;;2.65;;
57395;SDS011;43222;52.912;6.940;2022-07-24T12:07:08;4.10;;;2.20;;
57395;SDS011;43222;52.912;6.940;2022-07-24T12:09:44;4.70;;;2.40;;
57395;SDS011;43222;52.912;6.940;2022-07-24T12:14:45;5.13;;;2.20;;
57395;SDS011;43222;52.912;6.940;2022-07-24T12:17:12;5.30;;;2.58;;
57395;SDS011;43222;52.912;6.940;2022-07-24T12:19:38;4.82;;;2.30;;
57395;SDS011;43222;52.912;6.940;2022-07-24T12:22:04;6.22;;;2.55;;
57395;SDS011;43222;52.912;6.940;2022-07-24T12:24:30;4.78;;;2.20;;
57395;SDS011;43222;52.912;6.940;2022-07-24T12:26:57;4.85;;;2.50;;
57395;SDS011;43222;52.912;6.940;2022-07-24T12:29:25;5.78;;;2.30;;
57395;SDS011;43222;52.912;6.940;2022-07-24T12:32:33;4.00;;;2.20;;
57395;SDS011;43222;52.912;6.940;2022-07-24T12:34:41;4.70;;;2.50;;
57395;SDS011;43222;52.912;6.940;2022-07-24T12:37:14;3.50;;;2.00;;
57395;SDS011;43222;52.912;6.940;2022-07-24T12:39:51;3.35;;;1.85;;
57395;SDS011;43222;52.912;6.940;2022-07-24T12:42:18;5.20;;;2.25;;
57395;SDS011;43222;52.912;6.940;2022-07-24T12:44:45;5.68;;;2.38;;
57395;SDS011;43222;52.912;6.940;2022-07-24T12:47:11;3.88;;;2.25;;
57395;SDS011;43222;52.912;6.940;2022-07-24T12:49:41;5.07;;;2.47;;
57395;SDS011;43222;52.912;6.940;2022-07-24T12:52:18;6.75;;;2.50;;
57395;SDS011;43222;52.912;6.940;2022-07-24T12:54:45;6.38;;;2.58;;
57395;SDS011;43222;52.912;6.940;2022-07-24T12:57:12;5.47;;;2.70;;
57395;SDS011;43222;52.912;6.940;2022-07-24T12:59:39;4.88;;;2.50;;
57395;SDS011;43222;52.912;6.940;2022-07-24T13:02:10;4.93;;;2.40;;
57395;SDS011;43222;52.912;6.940;2022-07-24T13:04:55;4.90;;;2.70;;
57395;SDS011;43222;52.912;6.940;2022-07-24T13:07:24;4.55;;;2.28;;
57395;SDS011;43222;52.912;6.940;2022-07-24T13:09:50;5.03;;;2.50;;
57395;SDS011;43222;52.912;6.940;2022-07-24T13:12:16;4.28;;;2.33;;
57395;SDS011;43222;52.912;6.940;2022-07-24T13:14:43;4.43;;;2.38;;
57395;SDS011;43222;52.912;6.940;2022-07-24T13:19:36;4.68;;;2.50;;
57395;SDS011;43222;52.912;6.940;2022-07-24T13:22:02;6.72;;;2.55;;
57395;SDS011;43222;52.912;6.940;2022-07-24T13:24:28;5.40;;;2.80;;
57395;SDS011;43222;52.912;6.940;2022-07-24T13:26:55;5.68;;;2.50;;
57395;SDS011;43222;52.912;6.940;2022-07-24T13:29:21;4.88;;;2.53;;
57395;SDS011;43222;52.912;6.940;2022-07-24T13:31:49;5.00;;;2.45;;
57395;SDS011;43222;52.912;6.940;2022-07-24T13:34:15;5.07;;;2.65;;
57395;SDS011;43222;52.912;6.940;2022-07-24T13:36:42;6.57;;;2.58;;
57395;SDS011;43222;52.912;6.940;2022-07-24T13:39:08;4.93;;;2.70;;
57395;SDS011;43222;52.912;6.940;2022-07-24T13:41:34;6.57;;;2.53;;
57395;SDS011;43222;52.912;6.940;2022-07-24T13:44:01;5.43;;;2.42;;
57395;SDS011;43222;52.912;6.940;2022-07-24T13:46:27;7.15;;;2.80;;
57395;SDS011;43222;52.912;6.940;2022-07-24T13:48:54;4.82;;;2.25;;
57395;SDS011;43222;52.912;6.940;2022-07-24T13:51:20;5.78;;;2.40;;
57395;SDS011;43222;52.912;6.940;2022-07-24T13:53:46;5.72;;;2.70;;
57395;SDS011;43222;52.912;6.940;2022-07-24T13:56:13;5.03;;;2.50;;
57395;SDS011;43222;52.912;6.940;2022-07-24T13:58:40;4.72;;;2.60;;
57395;SDS011;43222;52.912;6.940;2022-07-24T14:01:07;6.20;;;2.75;;
57395;SDS011;43222;52.912;6.940;2022-07-24T14:03:33;5.25;;;2.70;;
57395;SDS011;43222;52.912;6.940;2022-07-24T14:06:00;5.53;;;2.47;;
57395;SDS011;43222;52.912;6.940;2022-07-24T14:08:27;4.50;;;2.70;;
57395;SDS011;43222;52.912;6.940;2022-07-24T14:10:53;4.72;;;2.80;;
57395;SDS011;43222;52.912;6.940;2022-07-24T14:13:19;5.15;;;2.60;;
57395;SDS011;43222;52.912;6.940;2022-07-24T14:15:45;5.68;;;2.67;;
57395;SDS011;43222;52.912;6.940;2022-07-24T14:18:11;3.85;;;2.25;;
57395;SDS011;43222;52.912;6.940;2022-07-24T14:20:38;6.40;;;2.58;;
57395;SDS011;43222;52.912;6.940;2022-07-24T14:23:04;4.40;;;2.30;;
57395;SDS011;43222;52.912;6.940;2022-07-24T14:25:30;8.93;;;2.42;;
57395;SDS011;43222;52.912;6.940;2022-07-24T14:27:57;5.47;;;2.60;;
57395;SDS011;43222;52.912;6.940;2022-07-24T14:30:23;4.85;;;2.53;;
57395;SDS011;43222;52.912;6.940;2022-07-24T14:32:49;4.82;;;2.20;;
57395;SDS011;43222;52.912;6.940;2022-07-24T14:35:15;4.88;;;2.50;;
57395;SDS011;43222;52.912;6.940;2022-07-24T14:37:41;5.78;;;2.28;;
57395;SDS011;43222;52.912;6.940;2022-07-24T14:40:08;8.85;;;2.45;;
57395;SDS011;43222;52.912;6.940;2022-07-24T14:42:34;6.30;;;2.10;;
57395;SDS011;43222;52.912;6.940;2022-07-24T14:45:01;4.85;;;2.10;;
57395;SDS011;43222;52.912;6.940;2022-07-24T14:47:27;5.90;;;2.28;;
57395;SDS011;43222;52.912;6.940;2022-07-24T14:49:53;4.78;;;2.50;;
57395;SDS011;43222;52.912;6.940;2022-07-24T14:52:20;4.50;;;2.20;;
57395;SDS011;43222;52.912;6.940;2022-07-24T14:54:46;5.63;;;2.30;;
57395;SDS011;43222;52.912;6.940;2022-07-24T14:57:13;4.93;;;2.30;;
57395;SDS011;43222;52.912;6.940;2022-07-24T14:59:39;4.68;;;2.60;;
57395;SDS011;43222;52.912;6.940;2022-07-24T15:02:05;7.88;;;2.40;;
57395;SDS011;43222;52.912;6.940;2022-07-24T15:04:32;6.25;;;2.38;;
57395;SDS011;43222;52.912;6.940;2022-07-24T15:06:58;4.75;;;2.50;;